createdAt,value
2022-10-11T00:00:55.585Z,16.43
2022-10-11T00:02:59.166Z,15.80
2022-10-11T00:05:02.449Z,16.60
2022-10-11T00:07:06.236Z,15.67
2022-10-11T00:09:12.593Z,14.83
2022-10-11T00:11:15.884Z,14.97
2022-10-11T00:13:19.114Z,14.53
2022-10-11T00:15:23.820Z,15.97
2022-10-11T00:17:27.391Z,15.00
2022-10-11T00:19:30.881Z,15.40
2022-10-11T00:21:34.209Z,16.20
2022-10-11T00:23:37.567Z,13.67
2022-10-11T00:25:43.215Z,15.30
2022-10-11T00:27:46.708Z,15.83
2022-10-11T00:29:50.017Z,14.30
2022-10-11T00:31:53.400Z,13.53
2022-10-11T00:33:57.296Z,14.00
2022-10-11T00:36:01.063Z,14.90
2022-10-11T00:38:04.330Z,16.00
2022-10-11T00:40:10.952Z,17.57
2022-10-11T00:42:17.282Z,21.63
2022-10-11T00:44:23.712Z,18.85
2022-10-11T00:46:30.680Z,17.30
2022-10-11T00:48:40.526Z,17.00
2022-10-11T00:50:44.126Z,14.38
2022-10-11T00:52:53.791Z,16.73
2022-10-11T00:54:58.130Z,16.10
2022-10-11T00:57:05.926Z,17.50
2022-10-11T00:59:17.625Z,16.20
2022-10-11T01:01:21.140Z,16.07
2022-10-11T01:03:28.047Z,17.00
2022-10-11T01:05:32.835Z,15.60
2022-10-11T01:07:36.415Z,16.40
2022-10-11T01:09:40.017Z,15.75
2022-10-11T01:11:44.942Z,16.50
2022-10-11T01:14:05.049Z,16.10
2022-10-11T01:16:16.425Z,15.17
2022-10-11T01:18:26.050Z,15.13
2022-10-11T01:20:41.744Z,16.47
2022-10-11T01:23:06.216Z,15.13
2022-10-11T01:25:21.276Z,13.23
2022-10-11T01:27:47.403Z,14.57
2022-10-11T01:29:58.885Z,14.73
2022-10-11T01:32:12.213Z,14.83
2022-10-11T01:34:23.125Z,15.07
2022-10-11T01:36:31.917Z,14.83
2022-10-11T01:38:40.435Z,13.50
2022-10-11T01:40:47.938Z,15.27
2022-10-11T01:42:52.927Z,14.83
2022-10-11T01:44:56.645Z,14.00
2022-10-11T01:47:00.024Z,15.00
2022-10-11T01:49:05.567Z,15.50
2022-10-11T01:51:10.304Z,15.00
2022-10-11T01:53:43.785Z,14.63
2022-10-11T01:55:51.941Z,14.40
2022-10-11T01:58:08.289Z,14.70
2022-10-11T02:00:16.260Z,13.27
2022-10-11T02:02:33.443Z,15.53
2022-10-11T02:04:46.214Z,14.03
2022-10-11T02:06:58.156Z,13.50
2022-10-11T02:09:13.067Z,12.23
2022-10-11T02:11:21.093Z,11.80
2022-10-11T02:13:28.783Z,13.47
2022-10-11T02:15:34.000Z,12.77
2022-10-11T02:17:42.161Z,11.30
2022-10-11T02:19:50.716Z,12.50
2022-10-11T02:21:59.538Z,11.97
2022-10-11T02:24:09.488Z,11.03
2022-10-11T02:26:14.821Z,11.47
2022-10-11T02:28:24.335Z,10.67
2022-10-11T02:30:27.772Z,11.77
2022-10-11T02:32:33.606Z,11.60
2022-10-11T02:34:40.171Z,12.20
2022-10-11T02:37:01.808Z,12.23
2022-10-11T02:39:13.263Z,10.93
2022-10-11T02:41:23.012Z,10.20
2022-10-11T02:43:33.389Z,11.03
2022-10-11T02:45:39.931Z,10.40
2022-10-11T02:47:44.552Z,12.23
2022-10-11T02:49:47.783Z,11.43
2022-10-11T02:51:52.558Z,11.90
2022-10-11T02:53:55.821Z,10.53
2022-10-11T02:55:59.206Z,11.33
2022-10-11T02:58:02.610Z,11.80
2022-10-11T03:00:07.157Z,11.03
2022-10-11T03:02:10.368Z,10.80
2022-10-11T03:04:13.677Z,9.90
2022-10-11T03:06:17.091Z,11.97
2022-10-11T03:08:22.122Z,11.70
2022-10-11T03:10:25.349Z,11.47
2022-10-11T03:12:28.813Z,11.13
2022-10-11T03:14:31.963Z,11.20
2022-10-11T03:16:35.232Z,11.40
2022-10-11T03:18:38.729Z,11.60
2022-10-11T03:20:42.038Z,12.47
2022-10-11T03:22:45.454Z,10.30
2022-10-11T03:24:50.189Z,10.00
2022-10-11T03:26:53.628Z,11.87
2022-10-11T03:28:56.989Z,11.37
2022-10-11T03:31:00.305Z,10.67
2022-10-11T03:33:03.544Z,10.00
2022-10-11T03:35:08.021Z,9.90
2022-10-11T03:37:11.703Z,11.30
2022-10-11T03:39:14.945Z,11.97
2022-10-11T03:41:19.875Z,11.53
2022-10-11T03:43:23.105Z,13.20
2022-10-11T03:45:26.296Z,9.40
2022-10-11T03:47:29.751Z,10.57
2022-10-11T03:49:33.154Z,11.00
2022-10-11T03:51:36.509Z,10.40
2022-10-11T03:53:39.872Z,10.73
2022-10-11T03:55:43.188Z,10.80
2022-10-11T03:57:47.773Z,11.60
2022-10-11T03:59:51.302Z,10.63
2022-10-11T04:01:58.147Z,11.50
2022-10-11T04:04:01.496Z,11.60
2022-10-11T04:06:05.242Z,10.90
2022-10-11T04:08:12.079Z,12.60
2022-10-11T04:10:15.734Z,11.40
2022-10-11T04:12:19.223Z,10.13
2022-10-11T04:14:23.950Z,12.20
2022-10-11T04:16:27.313Z,11.70
2022-10-11T04:18:30.504Z,11.30
2022-10-11T04:20:33.846Z,11.57
2022-10-11T04:22:37.118Z,11.43
2022-10-11T04:24:40.445Z,10.93
2022-10-11T04:26:43.611Z,11.73
2022-10-11T04:28:47.030Z,11.43
2022-10-11T04:30:52.372Z,11.20
2022-10-11T04:32:55.788Z,10.53
2022-10-11T04:34:59.157Z,11.57
2022-10-11T04:37:02.324Z,11.53
2022-10-11T04:39:06.170Z,12.47
2022-10-11T04:41:09.971Z,11.80
2022-10-11T04:43:15.412Z,10.07
2022-10-11T04:45:19.185Z,11.40
2022-10-11T04:47:23.964Z,10.27
2022-10-11T04:49:27.284Z,10.30
2022-10-11T04:51:30.926Z,10.70
2022-10-11T04:53:34.446Z,11.00
2022-10-11T04:55:37.706Z,10.23
2022-10-11T04:57:44.584Z,11.77
2022-10-11T04:59:50.225Z,12.10
2022-10-11T05:01:54.084Z,10.60
2022-10-11T05:03:59.184Z,11.90
2022-10-11T05:06:05.610Z,10.70
2022-10-11T05:08:09.470Z,10.80
2022-10-11T05:10:12.724Z,12.60
2022-10-11T05:12:16.010Z,11.20
2022-10-11T05:14:19.302Z,11.60
2022-10-11T05:16:22.544Z,11.73
2022-10-11T05:18:26.392Z,11.53
2022-10-11T05:20:31.172Z,11.07
2022-10-11T05:22:34.508Z,11.37
2022-10-11T05:24:37.797Z,11.10
2022-10-11T05:26:44.036Z,11.60
2022-10-11T05:28:48.075Z,11.70
2022-10-11T05:30:51.799Z,11.17
2022-10-11T05:32:54.982Z,11.63
2022-10-11T05:34:58.274Z,10.53
2022-10-11T05:37:03.379Z,10.50
2022-10-11T05:39:06.693Z,10.70
2022-10-11T05:41:10.513Z,10.60
2022-10-11T05:43:13.758Z,10.77
2022-10-11T05:45:17.057Z,11.63
2022-10-11T05:47:20.440Z,9.73
2022-10-11T05:49:23.738Z,10.20
2022-10-11T05:51:27.053Z,11.33
2022-10-11T05:53:32.295Z,10.73
2022-10-11T05:55:37.910Z,10.60
2022-10-11T05:57:41.391Z,10.77
2022-10-11T05:59:44.625Z,10.00
2022-10-11T06:01:47.919Z,10.37
2022-10-11T06:03:51.801Z,12.43
2022-10-11T06:05:57.173Z,10.00
2022-10-11T06:08:00.735Z,10.40
2022-10-11T06:10:06.770Z,9.57
2022-10-11T06:12:10.215Z,9.67
2022-10-11T06:14:13.512Z,9.27
2022-10-11T06:16:17.891Z,10.60
2022-10-11T06:18:21.258Z,8.70
2022-10-11T06:20:24.446Z,9.40
2022-10-11T06:22:27.862Z,8.80
2022-10-11T06:24:31.153Z,9.80
2022-10-11T06:26:35.778Z,8.27
2022-10-11T06:28:40.261Z,9.57
2022-10-11T06:30:43.579Z,9.47
2022-10-11T06:32:46.845Z,9.73
2022-10-11T06:34:50.161Z,9.30
2022-10-11T06:36:53.943Z,9.20
2022-10-11T06:38:57.293Z,8.73
2022-10-11T06:41:10.702Z,8.63
2022-10-11T06:43:15.613Z,8.60
2022-10-11T06:45:18.919Z,9.00
2022-10-11T06:47:22.491Z,9.00
2022-10-11T06:49:25.765Z,8.47
2022-10-11T06:51:30.472Z,9.47
2022-10-11T06:53:33.703Z,9.40
2022-10-11T06:55:37.040Z,7.37
2022-10-11T06:57:43.153Z,8.30
2022-10-11T06:59:47.765Z,8.67
2022-10-11T07:01:51.351Z,7.50
2022-10-11T07:03:56.778Z,8.07
2022-10-11T07:06:02.890Z,7.60
2022-10-11T07:08:06.651Z,9.17
2022-10-11T07:10:10.857Z,9.57
2022-10-11T15:54:44.633Z,6.47
2022-10-11T15:56:48.059Z,7.00
2022-10-11T15:58:51.571Z,7.27
2022-10-11T16:00:56.708Z,7.07
2022-10-11T16:03:00.949Z,7.83
2022-10-11T16:05:04.491Z,8.67
2022-10-11T16:07:08.006Z,9.20
2022-10-11T16:09:11.141Z,11.87
2022-10-11T16:11:16.362Z,12.20
2022-10-11T16:13:19.876Z,12.17
2022-10-11T16:15:23.667Z,11.70
2022-10-11T16:17:27.678Z,11.40
2022-10-11T16:19:30.910Z,11.03
2022-10-11T16:21:34.205Z,9.77
2022-10-11T16:23:37.520Z,11.80
2022-10-11T16:25:41.450Z,10.90
2022-10-11T16:27:46.738Z,11.50
2022-10-11T16:29:49.897Z,12.00
2022-10-11T16:31:53.678Z,13.70
2022-10-11T16:33:57.713Z,11.40
2022-10-11T16:36:20.933Z,12.40
2022-10-11T16:38:24.226Z,10.00
2022-10-11T16:40:29.866Z,9.70
2022-10-11T16:42:33.649Z,9.87
2022-10-11T16:44:39.271Z,8.07
2022-10-11T16:46:42.497Z,8.13
2022-10-11T16:48:45.957Z,8.67
2022-10-11T16:50:49.187Z,9.03
2022-10-11T16:52:53.583Z,12.43
2022-10-11T16:54:56.867Z,8.10
2022-10-11T16:57:01.393Z,14.30
2022-10-11T16:59:05.017Z,13.93
2022-10-11T17:01:14.434Z,10.20
2022-10-11T17:03:18.065Z,12.07
2022-10-11T17:05:21.195Z,15.67
2022-10-11T17:07:24.797Z,15.07
2022-10-11T17:09:28.114Z,13.50
2022-10-11T17:11:31.274Z,11.00
2022-10-11T17:13:34.746Z,10.93
2022-10-11T17:15:39.705Z,9.40
2022-10-11T17:17:44.518Z,9.70
2022-10-11T17:19:48.101Z,11.20
2022-10-11T17:21:51.234Z,11.83
2022-10-11T17:23:54.928Z,12.03
2022-10-11T17:25:58.411Z,13.47
2022-10-11T17:28:02.158Z,13.10
2022-10-11T17:30:06.031Z,14.30
2022-10-11T17:32:09.505Z,14.50
2022-10-11T17:34:15.943Z,11.73
2022-10-11T17:36:22.150Z,11.27
2022-10-11T17:38:27.359Z,12.00
2022-10-11T17:40:30.975Z,11.57
2022-10-11T17:42:34.137Z,11.33
2022-10-11T17:44:37.936Z,11.90
2022-10-11T17:46:41.262Z,14.57
2022-10-11T17:48:45.513Z,13.60
2022-10-11T17:50:50.882Z,15.30
2022-10-11T17:52:54.986Z,12.53
2022-10-11T17:54:58.487Z,13.73
2022-10-11T17:57:02.080Z,10.87
2022-10-11T17:59:05.611Z,12.57
2022-10-11T18:01:13.955Z,12.87
2022-10-11T18:03:17.374Z,14.27
2022-10-11T18:05:20.983Z,12.83
2022-10-11T18:07:25.695Z,15.10
2022-10-11T18:09:29.297Z,14.87
2022-10-11T18:11:32.905Z,26.70
2022-10-11T18:13:36.169Z,24.50
2022-10-11T18:15:39.605Z,21.17
2022-10-11T18:17:42.853Z,18.70
2022-10-11T18:19:46.379Z,19.00
2022-10-11T18:21:49.745Z,17.87
2022-10-11T18:23:54.360Z,17.67
2022-10-11T18:25:57.759Z,14.80
2022-10-11T18:28:01.260Z,12.80
2022-10-11T18:30:04.847Z,12.20
2022-10-11T18:32:08.028Z,11.83
2022-10-11T18:34:13.906Z,11.80
2022-10-11T18:36:22.190Z,12.50
2022-10-11T18:38:25.528Z,11.80
2022-10-11T18:40:30.481Z,11.33
2022-10-11T18:42:33.773Z,11.87
2022-10-11T18:44:36.942Z,10.13
2022-10-11T18:46:40.230Z,12.03
2022-10-11T18:48:44.525Z,11.00
2022-10-11T18:50:47.677Z,12.63
2022-10-11T18:52:51.286Z,13.27
2022-10-11T18:54:54.846Z,11.43
2022-10-11T18:56:59.698Z,11.67
2022-10-11T18:59:03.295Z,10.77
2022-10-11T19:01:07.475Z,10.73
2022-10-11T19:03:10.743Z,11.97
2022-10-11T19:05:16.949Z,11.90
2022-10-11T19:07:21.166Z,11.60
2022-10-11T19:09:26.396Z,12.23
2022-10-11T19:11:32.359Z,12.00
2022-10-11T19:13:37.847Z,11.00
2022-10-11T19:15:42.283Z,11.27
2022-10-11T19:17:45.440Z,11.20
2022-10-11T19:19:51.606Z,11.23
2022-10-11T19:21:55.251Z,11.73
2022-10-11T19:23:58.601Z,12.00
2022-10-11T19:26:02.492Z,10.50
2022-10-11T19:28:05.932Z,11.60
2022-10-11T19:30:11.510Z,11.67
2022-10-11T19:32:14.678Z,11.17
2022-10-11T19:34:18.493Z,12.27
2022-10-11T19:36:21.812Z,12.33
2022-10-11T19:38:25.361Z,12.30
2022-10-11T19:40:30.317Z,12.13
2022-10-11T19:42:36.500Z,13.43
2022-10-11T19:44:43.023Z,13.67
2022-10-11T19:46:52.287Z,15.80
2022-10-11T19:48:55.961Z,14.27
2022-10-11T19:51:06.537Z,13.90
2022-10-11T19:53:12.567Z,14.03
2022-10-11T19:55:16.476Z,16.40
2022-10-11T19:57:19.658Z,14.07
2022-10-11T19:59:23.448Z,15.27
2022-10-11T20:01:28.707Z,14.57
2022-10-11T20:03:34.851Z,11.70
2022-10-11T20:05:38.732Z,13.07
2022-10-11T20:07:42.401Z,11.93
2022-10-11T20:09:45.905Z,13.10
2022-10-11T20:11:49.135Z,15.43
2022-10-11T20:13:57.433Z,13.37
2022-10-11T20:16:02.225Z,14.17
2022-10-11T20:18:05.662Z,11.57
2022-10-11T20:20:11.026Z,12.53
2022-10-11T20:22:14.469Z,12.97
2022-10-11T20:24:17.608Z,12.13
2022-10-11T20:26:22.700Z,12.63
2022-10-11T20:28:26.207Z,11.77
2022-10-11T20:30:29.833Z,13.30
2022-10-11T20:32:33.021Z,11.70
2022-10-11T20:34:39.574Z,16.10
2022-10-11T20:36:48.969Z,14.47
2022-10-11T20:38:53.430Z,14.00
2022-10-11T20:40:56.849Z,12.23
2022-10-11T20:42:59.933Z,12.33
2022-10-11T20:45:03.080Z,13.00
2022-10-11T20:47:07.798Z,11.03
2022-10-11T20:49:13.225Z,12.80
2022-10-11T20:51:16.677Z,10.20
2022-10-11T20:53:21.276Z,11.60
2022-10-11T20:55:24.691Z,11.53
2022-10-11T20:57:27.833Z,10.40
2022-10-11T20:59:30.963Z,10.50
2022-10-11T21:01:37.079Z,12.10
2022-10-11T21:03:40.757Z,10.23
2022-10-11T21:05:44.300Z,10.37
2022-10-11T21:07:50.270Z,11.63
2022-10-11T21:09:54.832Z,10.90
2022-10-11T21:11:58.051Z,10.67
2022-10-11T21:14:03.872Z,9.40
2022-10-11T21:16:12.047Z,10.87
2022-10-11T21:18:15.539Z,10.97
2022-10-11T21:20:19.363Z,11.00
2022-10-11T21:22:22.530Z,11.07
2022-10-11T21:24:25.650Z,11.10
2022-10-11T21:26:31.358Z,11.70
2022-10-11T21:28:35.508Z,11.50
2022-10-11T21:30:38.759Z,12.10
2022-10-11T21:32:41.947Z,10.90
2022-10-11T21:34:45.643Z,10.23
2022-10-11T21:36:48.798Z,9.77
2022-10-11T21:38:55.040Z,9.67
2022-10-11T21:40:58.281Z,12.00
2022-10-11T21:43:05.666Z,12.27
2022-10-11T21:45:09.058Z,11.87
2022-10-11T21:47:12.863Z,12.67
2022-10-11T21:49:16.457Z,12.60
2022-10-11T21:51:22.544Z,11.07
2022-10-11T21:53:25.869Z,11.43
2022-10-11T21:55:29.731Z,12.13
2022-10-11T21:57:33.256Z,11.83
2022-10-11T21:59:37.864Z,11.20
2022-10-11T22:01:42.094Z,11.90
2022-10-11T22:03:45.876Z,12.17
2022-10-11T22:05:49.694Z,10.50
2022-10-11T22:07:53.040Z,13.00
2022-10-11T22:09:56.260Z,11.50
2022-10-11T22:11:59.413Z,12.20
2022-10-11T22:14:02.662Z,11.73
2022-10-11T22:16:08.640Z,12.00
2022-10-11T22:18:11.876Z,10.63
2022-10-11T22:20:15.269Z,12.03
2022-10-11T22:22:18.671Z,12.83
2022-10-11T22:24:21.876Z,12.40
2022-10-11T22:26:27.275Z,12.73
2022-10-11T22:28:30.570Z,13.13
2022-10-11T22:30:34.464Z,14.47
2022-10-11T22:32:39.274Z,14.50
2022-10-11T22:34:42.477Z,14.90
2022-10-11T22:36:45.810Z,14.57
2022-10-11T22:38:48.056Z,14.80
2022-10-11T22:40:51.360Z,16.03
2022-10-11T22:42:54.877Z,13.93
2022-10-11T22:44:58.503Z,13.30
2022-10-11T22:47:01.717Z,13.90
2022-10-11T22:49:06.602Z,14.00
2022-10-11T22:51:10.053Z,12.80
2022-10-11T22:53:14.363Z,13.70
2022-10-11T22:55:20.259Z,13.90
2022-10-11T22:57:23.891Z,14.20
2022-10-11T22:59:27.118Z,13.20
2022-10-11T23:01:30.305Z,14.20
2022-10-11T23:03:33.587Z,13.93
2022-10-11T23:05:38.152Z,14.37
2022-10-11T23:07:41.288Z,16.33
2022-10-11T23:09:44.838Z,14.30
2022-10-11T23:11:48.016Z,13.47
2022-10-11T23:13:51.231Z,14.63
2022-10-11T23:15:54.626Z,15.37
2022-10-11T23:17:57.811Z,16.57
2022-10-11T23:20:01.379Z,17.57
2022-10-11T23:22:05.854Z,18.80
2022-10-11T23:24:09.327Z,15.97
2022-10-11T23:26:14.624Z,16.70
2022-10-11T23:28:17.879Z,19.47
2022-10-11T23:30:21.067Z,19.53
2022-10-11T23:32:24.598Z,23.07
2022-10-11T23:34:27.817Z,16.50
2022-10-11T23:36:31.082Z,16.90
2022-10-11T23:38:35.610Z,15.87
2022-10-11T23:40:38.784Z,16.93
2022-10-11T23:42:42.452Z,16.53
2022-10-11T23:44:45.770Z,17.23
2022-10-11T23:46:49.182Z,21.20
2022-10-11T23:48:52.579Z,20.77
2022-10-11T23:50:55.778Z,18.40
2022-10-11T23:52:59.093Z,18.30
2022-10-11T23:55:03.746Z,20.50
2022-10-11T23:57:06.952Z,21.40
2022-10-11T23:59:10.429Z,19.83
